sensor_id;sensor_type;location;lat;lon;timestamp;P1;durP1;ratioP1;P2;durP2;ratioP2
6452;SDS011;3259;51.080;13.712;2023-01-01T00:00:54;0.80;;;0.80;;
6452;SDS011;3259;51.080;13.712;2023-01-01T00:03:43;0.90;;;0.90;;
6452;SDS011;3259;51.080;13.712;2023-01-01T00:06:39;1.10;;;1.05;;
6452;SDS011;3259;51.080;13.712;2023-01-01T00:09:29;2.25;;;1.00;;
6452;SDS011;3259;51.080;13.712;2023-01-01T00:12:36;1.88;;;0.90;;
6452;SDS011;3259;51.080;13.712;2023-01-01T00:15:24;0.80;;;0.80;;
6452;SDS011;3259;51.080;13.712;2023-01-01T00:18:14;4.93;;;0.82;;
6452;SDS011;3259;51.080;13.712;2023-01-01T00:21:03;3.30;;;1.38;;
6452;SDS011;3259;51.080;13.712;2023-01-01T00:23:52;1.92;;;1.23;;
6452;SDS011;3259;51.080;13.712;2023-01-01T00:26:42;2.92;;;1.02;;
6452;SDS011;3259;51.080;13.712;2023-01-01T00:29:30;1.15;;;0.80;;
6452;SDS011;3259;51.080;13.712;2023-01-01T00:32:19;2.40;;;0.93;;
6452;SDS011;3259;51.080;13.712;2023-01-01T00:35:08;3.30;;;1.27;;
6452;SDS011;3259;51.080;13.712;2023-01-01T00:37:57;0.98;;;0.98;;
6452;SDS011;3259;51.080;13.712;2023-01-01T00:40:46;1.25;;;1.05;;
6452;SDS011;3259;51.080;13.712;2023-01-01T00:43:36;1.70;;;1.00;;
6452;SDS011;3259;51.080;13.712;2023-01-01T00:46:24;1.40;;;1.17;;
6452;SDS011;3259;51.080;13.712;2023-01-01T00:49:13;1.20;;;1.10;;
6452;SDS011;3259;51.080;13.712;2023-01-01T00:52:02;1.30;;;0.95;;
6452;SDS011;3259;51.080;13.712;2023-01-01T00:54:51;1.27;;;1.13;;
6452;SDS011;3259;51.080;13.712;2023-01-01T00:57:39;1.05;;;0.93;;
6452;SDS011;3259;51.080;13.712;2023-01-01T01:00:30;2.17;;;1.27;;
6452;SDS011;3259;51.080;13.712;2023-01-01T01:03:18;1.25;;;1.15;;
6452;SDS011;3259;51.080;13.712;2023-01-01T01:06:17;1.65;;;0.80;;
6452;SDS011;3259;51.080;13.712;2023-01-01T01:09:06;1.15;;;1.15;;
6452;SDS011;3259;51.080;13.712;2023-01-01T01:11:55;7.85;;;0.85;;
6452;SDS011;3259;51.080;13.712;2023-01-01T01:15:04;13.00;;;1.58;;
6452;SDS011;3259;51.080;13.712;2023-01-01T01:17:55;3.03;;;1.20;;
6452;SDS011;3259;51.080;13.712;2023-01-01T01:20:48;3.17;;;1.00;;
6452;SDS011;3259;51.080;13.712;2023-01-01T01:23:38;6.63;;;1.40;;
6452;SDS011;3259;51.080;13.712;2023-01-01T01:26:27;2.55;;;1.02;;
6452;SDS011;3259;51.080;13.712;2023-01-01T01:29:17;3.58;;;0.90;;
6452;SDS011;3259;51.080;13.712;2023-01-01T01:32:05;1.42;;;0.90;;
6452;SDS011;3259;51.080;13.712;2023-01-01T01:34:55;2.28;;;0.95;;
6452;SDS011;3259;51.080;13.712;2023-01-01T01:37:44;4.65;;;0.85;;
6452;SDS011;3259;51.080;13.712;2023-01-01T01:40:34;2.03;;;1.13;;
6452;SDS011;3259;51.080;13.712;2023-01-01T01:43:23;1.70;;;1.10;;
6452;SDS011;3259;51.080;13.712;2023-01-01T01:46:13;1.45;;;1.00;;
6452;SDS011;3259;51.080;13.712;2023-01-01T01:49:11;2.17;;;0.98;;
6452;SDS011;3259;51.080;13.712;2023-01-01T01:52:03;3.65;;;0.98;;
6452;SDS011;3259;51.080;13.712;2023-01-01T01:54:52;9.32;;;1.08;;
6452;SDS011;3259;51.080;13.712;2023-01-01T01:57:41;0.88;;;0.82;;
6452;SDS011;3259;51.080;13.712;2023-01-01T02:00:30;1.25;;;1.15;;
6452;SDS011;3259;51.080;13.712;2023-01-01T02:03:19;1.80;;;0.90;;
6452;SDS011;3259;51.080;13.712;2023-01-01T02:06:10;3.03;;;0.82;;
6452;SDS011;3259;51.080;13.712;2023-01-01T02:09:01;5.82;;;0.80;;
6452;SDS011;3259;51.080;13.712;2023-01-01T02:11:53;1.30;;;0.80;;
6452;SDS011;3259;51.080;13.712;2023-01-01T02:14:42;2.10;;;0.90;;
6452;SDS011;3259;51.080;13.712;2023-01-01T02:17:31;1.13;;;0.95;;
6452;SDS011;3259;51.080;13.712;2023-01-01T02:20:30;0.93;;;0.70;;
6452;SDS011;3259;51.080;13.712;2023-01-01T02:26:42;1.10;;;0.75;;
6452;SDS011;3259;51.080;13.712;2023-01-01T02:29:38;0.70;;;0.70;;
6452;SDS011;3259;51.080;13.712;2023-01-01T02:32:30;1.05;;;0.70;;
6452;SDS011;3259;51.080;13.712;2023-01-01T02:35:22;1.38;;;1.00;;
6452;SDS011;3259;51.080;13.712;2023-01-01T02:38:24;3.30;;;0.90;;
6452;SDS011;3259;51.080;13.712;2023-01-01T02:41:18;0.77;;;0.63;;
6452;SDS011;3259;51.080;13.712;2023-01-01T02:44:09;0.68;;;0.68;;
6452;SDS011;3259;51.080;13.712;2023-01-01T02:47:06;5.28;;;0.75;;
6452;SDS011;3259;51.080;13.712;2023-01-01T02:50:00;1.75;;;0.30;;
6452;SDS011;3259;51.080;13.712;2023-01-01T02:52:53;0.60;;;0.60;;
6452;SDS011;3259;51.080;13.712;2023-01-01T02:55:51;1.92;;;0.45;;
6452;SDS011;3259;51.080;13.712;2023-01-01T02:58:46;0.70;;;0.60;;
6452;SDS011;3259;51.080;13.712;2023-01-01T03:01:57;1.67;;;0.88;;
6452;SDS011;3259;51.080;13.712;2023-01-01T03:04:56;1.95;;;0.40;;
6452;SDS011;3259;51.080;13.712;2023-01-01T03:07:56;0.77;;;0.77;;
6452;SDS011;3259;51.080;13.712;2023-01-01T03:10:49;2.20;;;0.70;;
6452;SDS011;3259;51.080;13.712;2023-01-01T03:13:41;1.58;;;0.80;;
6452;SDS011;3259;51.080;13.712;2023-01-01T03:16:35;1.52;;;0.40;;
6452;SDS011;3259;51.080;13.712;2023-01-01T03:19:27;1.67;;;0.75;;
6452;SDS011;3259;51.080;13.712;2023-01-01T03:22:18;1.27;;;0.50;;
6452;SDS011;3259;51.080;13.712;2023-01-01T03:25:09;0.70;;;0.70;;
6452;SDS011;3259;51.080;13.712;2023-01-01T03:28:01;0.43;;;0.43;;
6452;SDS011;3259;51.080;13.712;2023-01-01T03:30:51;0.70;;;0.70;;
6452;SDS011;3259;51.080;13.712;2023-01-01T03:33:42;0.50;;;0.50;;
6452;SDS011;3259;51.080;13.712;2023-01-01T03:36:33;0.60;;;0.60;;
6452;SDS011;3259;51.080;13.712;2023-01-01T03:39:25;1.70;;;0.57;;
6452;SDS011;3259;51.080;13.712;2023-01-01T03:42:17;0.77;;;0.68;;
6452;SDS011;3259;51.080;13.712;2023-01-01T03:45:12;0.85;;;0.70;;
6452;SDS011;3259;51.080;13.712;2023-01-01T03:48:04;1.60;;;0.65;;
6452;SDS011;3259;51.080;13.712;2023-01-01T03:50:56;0.95;;;0.43;;
6452;SDS011;3259;51.080;13.712;2023-01-01T03:53:49;2.10;;;0.65;;
6452;SDS011;3259;51.080;13.712;2023-01-01T03:56:43;14.80;;;0.60;;
6452;SDS011;3259;51.080;13.712;2023-01-01T03:59:34;1.60;;;0.65;;
6452;SDS011;3259;51.080;13.712;2023-01-01T04:02:27;1.63;;;0.60;;
6452;SDS011;3259;51.080;13.712;2023-01-01T04:05:19;0.88;;;0.40;;
6452;SDS011;3259;51.080;13.712;2023-01-01T04:08:08;3.70;;;0.47;;
6452;SDS011;3259;51.080;13.712;2023-01-01T04:10:58;0.40;;;0.40;;
6452;SDS011;3259;51.080;13.712;2023-01-01T04:14:09;1.48;;;0.40;;
6452;SDS011;3259;51.080;13.712;2023-01-01T04:16:58;0.70;;;0.70;;
6452;SDS011;3259;51.080;13.712;2023-01-01T04:19:47;0.60;;;0.40;;
6452;SDS011;3259;51.080;13.712;2023-01-01T04:22:41;2.65;;;0.43;;
6452;SDS011;3259;51.080;13.712;2023-01-01T04:25:30;2.15;;;0.50;;
6452;SDS011;3259;51.080;13.712;2023-01-01T04:28:18;0.60;;;0.40;;
6452;SDS011;3259;51.080;13.712;2023-01-01T04:31:09;0.95;;;0.50;;
6452;SDS011;3259;51.080;13.712;2023-01-01T04:33:58;0.65;;;0.50;;
6452;SDS011;3259;51.080;13.712;2023-01-01T04:36:46;0.38;;;0.38;;
6452;SDS011;3259;51.080;13.712;2023-01-01T04:39:35;1.27;;;0.50;;
6452;SDS011;3259;51.080;13.712;2023-01-01T04:42:24;1.00;;;0.50;;
6452;SDS011;3259;51.080;13.712;2023-01-01T04:45:13;0.35;;;0.35;;
6452;SDS011;3259;51.080;13.712;2023-01-01T04:48:04;0.20;;;0.20;;
6452;SDS011;3259;51.080;13.712;2023-01-01T04:50:53;0.63;;;0.40;;
6452;SDS011;3259;51.080;13.712;2023-01-01T04:53:43;0.40;;;0.38;;
6452;SDS011;3259;51.080;13.712;2023-01-01T04:56:32;0.28;;;0.28;;
6452;SDS011;3259;51.080;13.712;2023-01-01T04:59:20;0.40;;;0.40;;
6452;SDS011;3259;51.080;13.712;2023-01-01T05:02:09;2.05;;;0.50;;
6452;SDS011;3259;51.080;13.712;2023-01-01T05:04:59;1.40;;;0.32;;
6452;SDS011;3259;51.080;13.712;2023-01-01T05:07:48;2.55;;;0.43;;
6452;SDS011;3259;51.080;13.712;2023-01-01T05:10:36;0.95;;;0.52;;
6452;SDS011;3259;51.080;13.712;2023-01-01T05:13:25;1.15;;;0.40;;
6452;SDS011;3259;51.080;13.712;2023-01-01T05:16:14;8.48;;;0.63;;
6452;SDS011;3259;51.080;13.712;2023-01-01T05:19:04;1.75;;;0.35;;
6452;SDS011;3259;51.080;13.712;2023-01-01T05:21:56;0.50;;;0.50;;
6452;SDS011;3259;51.080;13.712;2023-01-01T05:24:44;0.20;;;0.20;;
6452;SDS011;3259;51.080;13.712;2023-01-01T05:27:33;2.38;;;0.28;;
6452;SDS011;3259;51.080;13.712;2023-01-01T05:30:21;0.22;;;0.22;;
6452;SDS011;3259;51.080;13.712;2023-01-01T05:33:10;1.85;;;0.88;;
6452;SDS011;3259;51.080;13.712;2023-01-01T05:35:59;6.25;;;0.38;;
6452;SDS011;3259;51.080;13.712;2023-01-01T05:38:50;1.85;;;0.60;;
6452;SDS011;3259;51.080;13.712;2023-01-01T05:41:39;0.20;;;0.20;;
6452;SDS011;3259;51.080;13.712;2023-01-01T05:44:28;0.85;;;0.30;;
6452;SDS011;3259;51.080;13.712;2023-01-01T05:47:16;1.65;;;0.30;;
6452;SDS011;3259;51.080;13.712;2023-01-01T05:50:07;2.53;;;0.30;;
6452;SDS011;3259;51.080;13.712;2023-01-01T05:52:55;2.10;;;0.22;;
6452;SDS011;3259;51.080;13.712;2023-01-01T05:55:45;0.20;;;0.20;;
6452;SDS011;3259;51.080;13.712;2023-01-01T05:58:39;1.85;;;0.20;;
6452;SDS011;3259;51.080;13.712;2023-01-01T06:01:29;2.17;;;0.50;;
6452;SDS011;3259;51.080;13.712;2023-01-01T06:04:18;0.17;;;0.17;;
6452;SDS011;3259;51.080;13.712;2023-01-01T06:07:07;2.15;;;0.30;;
6452;SDS011;3259;51.080;13.712;2023-01-01T06:09:56;1.48;;;0.50;;
6452;SDS011;3259;51.080;13.712;2023-01-01T06:12:46;0.65;;;0.65;;
6452;SDS011;3259;51.080;13.712;2023-01-01T06:15:35;0.35;;;0.28;;
6452;SDS011;3259;51.080;13.712;2023-01-01T06:18:24;2.25;;;0.40;;
6452;SDS011;3259;51.080;13.712;2023-01-01T06:21:13;0.98;;;0.10;;
6452;SDS011;3259;51.080;13.712;2023-01-01T06:24:03;0.63;;;0.40;;
6452;SDS011;3259;51.080;13.712;2023-01-01T06:26:52;2.17;;;0.30;;
6452;SDS011;3259;51.080;13.712;2023-01-01T06:29:42;0.68;;;0.28;;
6452;SDS011;3259;51.080;13.712;2023-01-01T06:32:31;0.17;;;0.17;;
6452;SDS011;3259;51.080;13.712;2023-01-01T06:35:20;0.35;;;0.20;;
6452;SDS011;3259;51.080;13.712;2023-01-01T06:38:09;0.20;;;0.20;;
6452;SDS011;3259;51.080;13.712;2023-01-01T06:40:58;0.32;;;0.20;;
6452;SDS011;3259;51.080;13.712;2023-01-01T06:43:47;0.20;;;0.20;;
6452;SDS011;3259;51.080;13.712;2023-01-01T06:46:37;2.67;;;0.30;;
6452;SDS011;3259;51.080;13.712;2023-01-01T06:49:26;1.27;;;0.30;;
6452;SDS011;3259;51.080;13.712;2023-01-01T06:52:14;0.20;;;0.20;;
6452;SDS011;3259;51.080;13.712;2023-01-01T06:55:03;0.55;;;0.30;;
6452;SDS011;3259;51.080;13.712;2023-01-01T06:57:52;0.60;;;0.10;;
6452;SDS011;3259;51.080;13.712;2023-01-01T07:00:41;0.68;;;0.50;;
6452;SDS011;3259;51.080;13.712;2023-01-01T07:03:34;0.43;;;0.28;;
6452;SDS011;3259;51.080;13.712;2023-01-01T07:06:23;0.40;;;0.30;;
6452;SDS011;3259;51.080;13.712;2023-01-01T07:09:15;0.65;;;0.20;;
6452;SDS011;3259;51.080;13.712;2023-01-01T07:12:03;0.85;;;0.20;;
6452;SDS011;3259;51.080;13.712;2023-01-01T07:14:52;0.25;;;0.25;;
6452;SDS011;3259;51.080;13.712;2023-01-01T07:17:42;0.13;;;0.13;;
6452;SDS011;3259;51.080;13.712;2023-01-01T07:20:32;0.28;;;0.20;;
6452;SDS011;3259;51.080;13.712;2023-01-01T07:23:21;0.98;;;0.25;;
6452;SDS011;3259;51.080;13.712;2023-01-01T07:26:10;0.45;;;0.25;;
6452;SDS011;3259;51.080;13.712;2023-01-01T07:28:59;0.13;;;0.10;;
6452;SDS011;3259;51.080;13.712;2023-01-01T07:31:53;1.88;;;0.22;;
6452;SDS011;3259;51.080;13.712;2023-01-01T07:34:42;0.63;;;0.35;;
6452;SDS011;3259;51.080;13.712;2023-01-01T07:37:37;2.65;;;0.30;;
6452;SDS011;3259;51.080;13.712;2023-01-01T07:40:26;2.63;;;0.30;;
6452;SDS011;3259;51.080;13.712;2023-01-01T07:43:15;1.23;;;0.30;;
6452;SDS011;3259;51.080;13.712;2023-01-01T07:46:04;0.57;;;0.20;;
6452;SDS011;3259;51.080;13.712;2023-01-01T07:48:52;1.02;;;0.22;;
6452;SDS011;3259;51.080;13.712;2023-01-01T07:51:42;2.17;;;0.22;;
6452;SDS011;3259;51.080;13.712;2023-01-01T07:54:32;3.92;;;0.47;;
6452;SDS011;3259;51.080;13.712;2023-01-01T07:57:20;4.13;;;0.65;;
6452;SDS011;3259;51.080;13.712;2023-01-01T08:00:10;0.73;;;0.40;;
6452;SDS011;3259;51.080;13.712;2023-01-01T08:03:00;3.50;;;0.55;;
6452;SDS011;3259;51.080;13.712;2023-01-01T08:05:48;1.20;;;0.40;;
6452;SDS011;3259;51.080;13.712;2023-01-01T08:08:37;0.40;;;0.40;;
6452;SDS011;3259;51.080;13.712;2023-01-01T08:11:28;0.30;;;0.25;;
6452;SDS011;3259;51.080;13.712;2023-01-01T08:14:18;0.45;;;0.35;;
6452;SDS011;3259;51.080;13.712;2023-01-01T08:17:07;0.50;;;0.47;;
6452;SDS011;3259;51.080;13.712;2023-01-01T08:19:56;2.40;;;0.63;;
6452;SDS011;3259;51.080;13.712;2023-01-01T08:22:44;1.05;;;0.38;;
6452;SDS011;3259;51.080;13.712;2023-01-01T08:25:33;0.20;;;0.20;;
6452;SDS011;3259;51.080;13.712;2023-01-01T08:28:23;0.70;;;0.70;;
6452;SDS011;3259;51.080;13.712;2023-01-01T08:31:12;1.08;;;0.25;;
6452;SDS011;3259;51.080;13.712;2023-01-01T08:34:01;1.85;;;0.47;;
6452;SDS011;3259;51.080;13.712;2023-01-01T08:36:49;0.68;;;0.20;;
6452;SDS011;3259;51.080;13.712;2023-01-01T08:39:38;1.08;;;0.22;;
6452;SDS011;3259;51.080;13.712;2023-01-01T08:42:30;0.30;;;0.30;;
6452;SDS011;3259;51.080;13.712;2023-01-01T08:45:20;0.20;;;0.20;;
6452;SDS011;3259;51.080;13.712;2023-01-01T08:48:09;0.40;;;0.40;;
6452;SDS011;3259;51.080;13.712;2023-01-01T08:50:58;0.28;;;0.28;;
6452;SDS011;3259;51.080;13.712;2023-01-01T08:53:47;0.38;;;0.20;;
6452;SDS011;3259;51.080;13.712;2023-01-01T08:56:37;0.93;;;0.43;;
6452;SDS011;3259;51.080;13.712;2023-01-01T08:59:25;2.28;;;0.35;;
6452;SDS011;3259;51.080;13.712;2023-01-01T09:02:15;1.38;;;0.28;;
6452;SDS011;3259;51.080;13.712;2023-01-01T09:05:05;2.25;;;0.13;;
6452;SDS011;3259;51.080;13.712;2023-01-01T09:07:54;3.50;;;0.10;;
6452;SDS011;3259;51.080;13.712;2023-01-01T09:10:43;0.30;;;0.30;;
6452;SDS011;3259;51.080;13.712;2023-01-01T09:13:32;0.10;;;0.10;;
6452;SDS011;3259;51.080;13.712;2023-01-01T09:16:21;1.23;;;0.20;;
6452;SDS011;3259;51.080;13.712;2023-01-01T09:19:11;1.27;;;0.15;;
6452;SDS011;3259;51.080;13.712;2023-01-01T09:22:00;0.32;;;0.20;;
6452;SDS011;3259;51.080;13.712;2023-01-01T09:24:49;0.20;;;0.10;;
6452;SDS011;3259;51.080;13.712;2023-01-01T09:27:37;1.10;;;0.40;;
6452;SDS011;3259;51.080;13.712;2023-01-01T09:30:26;0.82;;;0.40;;
6452;SDS011;3259;51.080;13.712;2023-01-01T09:33:15;1.95;;;0.28;;
6452;SDS011;3259;51.080;13.712;2023-01-01T09:36:15;3.45;;;0.30;;
6452;SDS011;3259;51.080;13.712;2023-01-01T09:39:14;0.93;;;0.20;;
6452;SDS011;3259;51.080;13.712;2023-01-01T09:42:08;1.63;;;0.20;;
6452;SDS011;3259;51.080;13.712;2023-01-01T09:45:17;0.75;;;0.43;;
6452;SDS011;3259;51.080;13.712;2023-01-01T09:48:10;3.20;;;0.80;;
6452;SDS011;3259;51.080;13.712;2023-01-01T09:50:59;7.10;;;0.60;;
6452;SDS011;3259;51.080;13.712;2023-01-01T09:53:53;0.50;;;0.50;;
6452;SDS011;3259;51.080;13.712;2023-01-01T09:56:44;1.25;;;0.65;;
6452;SDS011;3259;51.080;13.712;2023-01-01T09:59:33;5.55;;;0.80;;
6452;SDS011;3259;51.080;13.712;2023-01-01T10:02:29;1.95;;;0.80;;
6452;SDS011;3259;51.080;13.712;2023-01-01T10:05:25;2.15;;;0.73;;
6452;SDS011;3259;51.080;13.712;2023-01-01T10:08:22;2.05;;;0.95;;
6452;SDS011;3259;51.080;13.712;2023-01-01T10:11:20;2.97;;;0.60;;
6452;SDS011;3259;51.080;13.712;2023-01-01T10:14:14;3.20;;;0.50;;
6452;SDS011;3259;51.080;13.712;2023-01-01T10:17:08;1.85;;;0.90;;
6452;SDS011;3259;51.080;13.712;2023-01-01T10:19:59;1.55;;;0.70;;
6452;SDS011;3259;51.080;13.712;2023-01-01T10:22:51;1.85;;;1.00;;
6452;SDS011;3259;51.080;13.712;2023-01-01T10:25:43;4.43;;;0.60;;
6452;SDS011;3259;51.080;13.712;2023-01-01T10:28:37;1.83;;;0.70;;
6452;SDS011;3259;51.080;13.712;2023-01-01T10:31:29;1.63;;;0.60;;
6452;SDS011;3259;51.080;13.712;2023-01-01T10:34:20;3.95;;;1.05;;
6452;SDS011;3259;51.080;13.712;2023-01-01T10:37:11;0.80;;;0.50;;
6452;SDS011;3259;51.080;13.712;2023-01-01T10:40:01;4.00;;;1.02;;
6452;SDS011;3259;51.080;13.712;2023-01-01T10:42:58;2.58;;;0.90;;
6452;SDS011;3259;51.080;13.712;2023-01-01T10:45:50;3.25;;;0.77;;
6452;SDS011;3259;51.080;13.712;2023-01-01T10:48:41;4.20;;;1.23;;
6452;SDS011;3259;51.080;13.712;2023-01-01T10:51:50;1.60;;;0.90;;
6452;SDS011;3259;51.080;13.712;2023-01-01T10:54:40;1.70;;;0.93;;
6452;SDS011;3259;51.080;13.712;2023-01-01T10:57:30;2.15;;;0.77;;
6452;SDS011;3259;51.080;13.712;2023-01-01T11:00:22;1.75;;;0.93;;
6452;SDS011;3259;51.080;13.712;2023-01-01T11:03:15;1.35;;;0.90;;
6452;SDS011;3259;51.080;13.712;2023-01-01T11:06:15;2.55;;;0.70;;
6452;SDS011;3259;51.080;13.712;2023-01-01T11:09:17;1.27;;;0.73;;
6452;SDS011;3259;51.080;13.712;2023-01-01T11:12:15;1.92;;;0.82;;
6452;SDS011;3259;51.080;13.712;2023-01-01T11:15:31;2.65;;;1.00;;
6452;SDS011;3259;51.080;13.712;2023-01-01T11:18:26;3.10;;;1.08;;
6452;SDS011;3259;51.080;13.712;2023-01-01T11:21:22;1.42;;;0.95;;
6452;SDS011;3259;51.080;13.712;2023-01-01T11:24:16;2.05;;;0.85;;
6452;SDS011;3259;51.080;13.712;2023-01-01T11:27:17;1.80;;;1.13;;
6452;SDS011;3259;51.080;13.712;2023-01-01T11:30:24;1.77;;;1.00;;
6452;SDS011;3259;51.080;13.712;2023-01-01T11:33:14;4.20;;;1.10;;
6452;SDS011;3259;51.080;13.712;2023-01-01T11:36:06;4.30;;;1.40;;
6452;SDS011;3259;51.080;13.712;2023-01-01T11:39:05;74.18;;;3.85;;
6452;SDS011;3259;51.080;13.712;2023-01-01T11:42:01;19.38;;;2.85;;
6452;SDS011;3259;51.080;13.712;2023-01-01T11:44:51;16.00;;;2.25;;
6452;SDS011;3259;51.080;13.712;2023-01-01T11:47:41;59.33;;;5.68;;
6452;SDS011;3259;51.080;13.712;2023-01-01T11:50:31;53.45;;;5.40;;
6452;SDS011;3259;51.080;13.712;2023-01-01T11:53:27;50.33;;;4.63;;
6452;SDS011;3259;51.080;13.712;2023-01-01T11:56:19;38.28;;;3.63;;
6452;SDS011;3259;51.080;13.712;2023-01-01T11:59:11;34.05;;;3.45;;
6452;SDS011;3259;51.080;13.712;2023-01-01T12:02:01;78.60;;;5.25;;
6452;SDS011;3259;51.080;13.712;2023-01-01T12:04:52;94.30;;;6.18;;
6452;SDS011;3259;51.080;13.712;2023-01-01T12:07:44;87.07;;;6.40;;
6452;SDS011;3259;51.080;13.712;2023-01-01T12:10:37;48.60;;;5.45;;
6452;SDS011;3259;51.080;13.712;2023-01-01T12:13:28;30.98;;;3.30;;
6452;SDS011;3259;51.080;13.712;2023-01-01T12:16:19;32.30;;;3.30;;
6452;SDS011;3259;51.080;13.712;2023-01-01T12:19:11;19.17;;;2.72;;
6452;SDS011;3259;51.080;13.712;2023-01-01T12:22:04;21.75;;;2.50;;
6452;SDS011;3259;51.080;13.712;2023-01-01T12:24:58;19.17;;;3.15;;
6452;SDS011;3259;51.080;13.712;2023-01-01T12:27:54;26.52;;;2.63;;
6452;SDS011;3259;51.080;13.712;2023-01-01T12:30:50;7.97;;;2.08;;
6452;SDS011;3259;51.080;13.712;2023-01-01T12:33:49;7.28;;;1.45;;
6452;SDS011;3259;51.080;13.712;2023-01-01T12:36:46;8.23;;;1.67;;
6452;SDS011;3259;51.080;13.712;2023-01-01T12:43:13;13.00;;;1.95;;
6452;SDS011;3259;51.080;13.712;2023-01-01T12:46:23;9.93;;;2.03;;
6452;SDS011;3259;51.080;13.712;2023-01-01T12:49:22;6.90;;;2.03;;
6452;SDS011;3259;51.080;13.712;2023-01-01T12:52:21;7.60;;;1.77;;
6452;SDS011;3259;51.080;13.712;2023-01-01T12:55:39;9.43;;;1.77;;
6452;SDS011;3259;51.080;13.712;2023-01-01T12:58:35;9.98;;;2.05;;
6452;SDS011;3259;51.080;13.712;2023-01-01T13:01:27;6.95;;;1.52;;
6452;SDS011;3259;51.080;13.712;2023-01-01T13:04:19;3.42;;;1.35;;
6452;SDS011;3259;51.080;13.712;2023-01-01T13:07:10;3.72;;;1.38;;
6452;SDS011;3259;51.080;13.712;2023-01-01T13:10:02;2.35;;;0.95;;
6452;SDS011;3259;51.080;13.712;2023-01-01T13:12:55;6.03;;;1.45;;
6452;SDS011;3259;51.080;13.712;2023-01-01T13:15:49;5.10;;;1.42;;
6452;SDS011;3259;51.080;13.712;2023-01-01T13:18:41;7.38;;;1.55;;
6452;SDS011;3259;51.080;13.712;2023-01-01T13:21:36;5.53;;;1.65;;
6452;SDS011;3259;51.080;13.712;2023-01-01T13:24:25;1.10;;;1.00;;
6452;SDS011;3259;51.080;13.712;2023-01-01T13:27:14;10.02;;;1.40;;
6452;SDS011;3259;51.080;13.712;2023-01-01T13:30:45;7.00;;;1.45;;
6452;SDS011;3259;51.080;13.712;2023-01-01T13:33:36;4.18;;;1.10;;
6452;SDS011;3259;51.080;13.712;2023-01-01T13:36:31;2.90;;;1.40;;
6452;SDS011;3259;51.080;13.712;2023-01-01T13:42:43;6.78;;;2.05;;
6452;SDS011;3259;51.080;13.712;2023-01-01T13:45:38;3.88;;;1.83;;
6452;SDS011;3259;51.080;13.712;2023-01-01T13:48:59;3.80;;;1.13;;
6452;SDS011;3259;51.080;13.712;2023-01-01T13:52:11;3.72;;;1.05;;
6452;SDS011;3259;51.080;13.712;2023-01-01T13:55:21;5.47;;;1.23;;
6452;SDS011;3259;51.080;13.712;2023-01-01T13:58:32;4.30;;;1.08;;
6452;SDS011;3259;51.080;13.712;2023-01-01T14:01:34;4.28;;;0.82;;
6452;SDS011;3259;51.080;13.712;2023-01-01T14:04:34;4.47;;;1.20;;
6452;SDS011;3259;51.080;13.712;2023-01-01T14:07:28;1.90;;;1.10;;
6452;SDS011;3259;51.080;13.712;2023-01-01T14:10:37;3.70;;;1.20;;
6452;SDS011;3259;51.080;13.712;2023-01-01T14:13:27;1.65;;;1.33;;
6452;SDS011;3259;51.080;13.712;2023-01-01T14:16:18;1.80;;;0.90;;
6452;SDS011;3259;51.080;13.712;2023-01-01T14:19:07;3.95;;;1.13;;
6452;SDS011;3259;51.080;13.712;2023-01-01T14:22:05;2.95;;;1.38;;
6452;SDS011;3259;51.080;13.712;2023-01-01T14:24:55;2.40;;;1.00;;
6452;SDS011;3259;51.080;13.712;2023-01-01T14:27:47;1.80;;;1.13;;
6452;SDS011;3259;51.080;13.712;2023-01-01T14:30:35;5.03;;;0.98;;
6452;SDS011;3259;51.080;13.712;2023-01-01T14:33:25;6.70;;;1.08;;
6452;SDS011;3259;51.080;13.712;2023-01-01T14:36:16;3.30;;;1.33;;
6452;SDS011;3259;51.080;13.712;2023-01-01T14:39:21;5.65;;;1.52;;
6452;SDS011;3259;51.080;13.712;2023-01-01T14:42:14;1.40;;;1.13;;
6452;SDS011;3259;51.080;13.712;2023-01-01T14:45:04;6.68;;;1.70;;
6452;SDS011;3259;51.080;13.712;2023-01-01T14:47:54;9.40;;;1.42;;
6452;SDS011;3259;51.080;13.712;2023-01-01T14:50:45;6.57;;;1.88;;
6452;SDS011;3259;51.080;13.712;2023-01-01T14:53:35;1.77;;;1.30;;
6452;SDS011;3259;51.080;13.712;2023-01-01T14:56:26;4.15;;;1.90;;
6452;SDS011;3259;51.080;13.712;2023-01-01T14:59:17;4.93;;;1.23;;
6452;SDS011;3259;51.080;13.712;2023-01-01T15:02:11;3.83;;;1.20;;
6452;SDS011;3259;51.080;13.712;2023-01-01T15:05:14;2.38;;;1.30;;
6452;SDS011;3259;51.080;13.712;2023-01-01T15:08:22;5.32;;;1.30;;
6452;SDS011;3259;51.080;13.712;2023-01-01T15:11:12;2.47;;;1.52;;
6452;SDS011;3259;51.080;13.712;2023-01-01T15:14:02;3.65;;;1.42;;
6452;SDS011;3259;51.080;13.712;2023-01-01T15:16:58;4.53;;;1.80;;
6452;SDS011;3259;51.080;13.712;2023-01-01T15:19:58;3.60;;;1.60;;
6452;SDS011;3259;51.080;13.712;2023-01-01T15:22:49;3.03;;;1.50;;
6452;SDS011;3259;51.080;13.712;2023-01-01T15:25:39;6.28;;;2.15;;
6452;SDS011;3259;51.080;13.712;2023-01-01T15:28:29;8.73;;;1.65;;
6452;SDS011;3259;51.080;13.712;2023-01-01T15:31:19;2.58;;;1.50;;
6452;SDS011;3259;51.080;13.712;2023-01-01T15:37:20;4.57;;;1.75;;
6452;SDS011;3259;51.080;13.712;2023-01-01T15:43:18;3.28;;;1.55;;
6452;SDS011;3259;51.080;13.712;2023-01-01T15:46:10;4.43;;;1.70;;
6452;SDS011;3259;51.080;13.712;2023-01-01T15:49:19;3.35;;;1.45;;
6452;SDS011;3259;51.080;13.712;2023-01-01T15:52:15;2.53;;;1.30;;
6452;SDS011;3259;51.080;13.712;2023-01-01T15:55:11;3.90;;;1.10;;
6452;SDS011;3259;51.080;13.712;2023-01-01T15:58:01;2.03;;;1.52;;
6452;SDS011;3259;51.080;13.712;2023-01-01T16:00:52;1.05;;;0.93;;
6452;SDS011;3259;51.080;13.712;2023-01-01T16:03:42;1.75;;;1.40;;
6452;SDS011;3259;51.080;13.712;2023-01-01T16:06:40;5.88;;;1.20;;
6452;SDS011;3259;51.080;13.712;2023-01-01T16:09:30;7.55;;;1.15;;
6452;SDS011;3259;51.080;13.712;2023-01-01T16:12:21;1.65;;;1.27;;
6452;SDS011;3259;51.080;13.712;2023-01-01T16:15:12;3.65;;;1.80;;
6452;SDS011;3259;51.080;13.712;2023-01-01T16:18:02;4.70;;;1.70;;
6452;SDS011;3259;51.080;13.712;2023-01-01T16:20:51;2.45;;;1.65;;
6452;SDS011;3259;51.080;13.712;2023-01-01T16:23:41;7.50;;;2.13;;
6452;SDS011;3259;51.080;13.712;2023-01-01T16:26:30;4.43;;;1.65;;
6452;SDS011;3259;51.080;13.712;2023-01-01T16:29:27;2.97;;;1.40;;
6452;SDS011;3259;51.080;13.712;2023-01-01T16:32:16;3.47;;;1.52;;
6452;SDS011;3259;51.080;13.712;2023-01-01T16:35:06;6.95;;;1.75;;
6452;SDS011;3259;51.080;13.712;2023-01-01T16:37:58;3.03;;;1.85;;
6452;SDS011;3259;51.080;13.712;2023-01-01T16:40:49;3.88;;;1.67;;
6452;SDS011;3259;51.080;13.712;2023-01-01T16:43:39;4.63;;;1.65;;
6452;SDS011;3259;51.080;13.712;2023-01-01T16:46:27;5.18;;;1.98;;
6452;SDS011;3259;51.080;13.712;2023-01-01T16:49:17;3.75;;;1.27;;
6452;SDS011;3259;51.080;13.712;2023-01-01T16:52:06;5.32;;;2.25;;
6452;SDS011;3259;51.080;13.712;2023-01-01T16:54:55;1.58;;;1.38;;
6452;SDS011;3259;51.080;13.712;2023-01-01T16:57:45;10.10;;;2.65;;
6452;SDS011;3259;51.080;13.712;2023-01-01T17:00:34;6.68;;;1.67;;
6452;SDS011;3259;51.080;13.712;2023-01-01T17:03:23;8.63;;;2.55;;
6452;SDS011;3259;51.080;13.712;2023-01-01T17:06:12;9.00;;;2.17;;
6452;SDS011;3259;51.080;13.712;2023-01-01T17:09:01;4.88;;;1.27;;
6452;SDS011;3259;51.080;13.712;2023-01-01T17:11:50;3.42;;;1.70;;
6452;SDS011;3259;51.080;13.712;2023-01-01T17:14:40;2.28;;;1.50;;
6452;SDS011;3259;51.080;13.712;2023-01-01T17:17:29;4.85;;;1.35;;
6452;SDS011;3259;51.080;13.712;2023-01-01T17:20:17;4.75;;;1.40;;
6452;SDS011;3259;51.080;13.712;2023-01-01T17:23:06;4.35;;;1.55;;
6452;SDS011;3259;51.080;13.712;2023-01-01T17:25:55;2.78;;;1.95;;
6452;SDS011;3259;51.080;13.712;2023-01-01T17:28:52;1.20;;;1.08;;
6452;SDS011;3259;51.080;13.712;2023-01-01T17:31:48;1.83;;;1.50;;
6452;SDS011;3259;51.080;13.712;2023-01-01T17:34:36;3.85;;;1.13;;
6452;SDS011;3259;51.080;13.712;2023-01-01T17:37:25;8.00;;;1.65;;
6452;SDS011;3259;51.080;13.712;2023-01-01T17:40:14;9.68;;;1.15;;
6452;SDS011;3259;51.080;13.712;2023-01-01T17:43:03;12.98;;;3.42;;
6452;SDS011;3259;51.080;13.712;2023-01-01T17:45:51;52.50;;;13.70;;
6452;SDS011;3259;51.080;13.712;2023-01-01T17:48:42;170.60;;;38.88;;